Time;durP1;ratioP1;P1;durP2;ratioP2;P2;SDS_P1;SDS_P2;PMS_P1;PMS_P2;Temp;Humidity;BMP_temperature;BMP_pressure;BME280_temperature;BME280_humidity;BME280_pressure;Samples;Min_cycle;Max_cycle;Signal;HPM_P1;HPM_P2
2022/10/14 00:01:20;;;;;;;;;;;8.40;99.90;;;;;;4993883;28;19993;-73
2022/10/14 00:03:46;;;;;;;;;;;8.50;99.90;;;;;;4973166;28;19916;-74
2022/10/14 00:06:14;;;;;;;;;;;8.50;99.90;;;;;;4974170;28;20311;-74
2022/10/14 00:08:40;;;;;;;;;;;8.50;99.90;;;;;;4994463;28;19965;-74
2022/10/14 00:11:06;;;;;;;;;;;8.50;99.90;;;;;;4993271;28;20215;-74
2022/10/14 00:13:41;;;;;;;;;;;8.50;99.90;;;;;;4991895;28;19924;-75
2022/10/14 00:16:13;;;;;;;;;;;8.70;99.90;;;;;;4976608;28;20538;-74
2022/10/14 00:18:39;;;;;;;;;;;8.60;99.90;;;;;;4993069;28;19916;-73
2022/10/14 00:21:05;;;;;;;;;;;8.60;99.90;;;;;;4975390;28;20010;-75
2022/10/14 00:23:31;;;;;;;;;;;8.60;99.90;;;;;;4992568;28;19916;-74
2022/10/14 00:25:56;;;;;;;;;;;8.60;99.90;;;;;;4975642;28;19948;-75
2022/10/14 00:28:22;;;;;;;;;;;8.70;99.90;;;;;;4993999;28;20952;-75
2022/10/14 00:30:57;;;;;;;;;;;8.60;99.90;;;;;;4973065;28;23778;-75
2022/10/14 00:33:23;;;;;;;;;;;8.70;99.90;;;;;;4995369;28;19997;-74
2022/10/14 00:35:53;;;;;;;;;;;8.70;99.90;;;;;;4993609;28;19916;-74
2022/10/14 00:38:18;;;;;;;;;;;8.70;99.90;;;;;;4975447;28;20796;-74
2022/10/14 00:40:44;;;;;;;;;;;8.60;99.90;;;;;;4975934;28;19922;-76
2022/10/14 00:45:57;;;;;;;;;;;8.40;99.90;;;;;;4990968;28;19923;-74
2022/10/14 00:48:23;;;;;;;;;;;8.30;99.90;;;;;;4992974;28;19916;-74
2022/10/14 00:50:51;;;;;;;;;;;8.20;99.90;;;;;;4994636;28;20188;-76
2022/10/14 00:53:17;;;;;;;;;;;8.20;99.90;;;;;;4992007;28;19931;-76
2022/10/14 00:55:43;;;;;;;;;;;8.10;99.90;;;;;;4971718;28;19944;-76
2022/10/14 00:58:09;;;;;;;;;;;8.10;99.90;;;;;;4994001;28;19927;-76
2022/10/14 01:00:35;;;;;;;;;;;8.10;99.90;;;;;;4993595;28;19915;-75
2022/10/14 01:03:05;;;;;;;;;;;8.10;99.90;;;;;;4992342;28;19916;-75
2022/10/14 01:05:35;;;;;;;;;;;8.00;99.90;;;;;;4989720;28;19916;-75
2022/10/14 01:08:14;;;;;;;;;;;8.10;99.90;;;;;;4993974;28;19985;-74
2022/10/14 01:10:49;;;;;;;;;;;8.10;99.90;;;;;;4972490;28;19923;-74
2022/10/14 01:13:32;;;;;;;;;;;8.20;99.90;;;;;;4991443;28;19943;-74
2022/10/14 01:16:00;;;;;;;;;;;8.40;99.90;;;;;;4994169;28;19917;-74
2022/10/14 01:18:35;;;;;;;;;;;8.50;99.90;;;;;;4993015;28;19924;-74
2022/10/14 01:21:03;;;;;;;;;;;8.50;99.90;;;;;;4996341;28;19923;-74
2022/10/14 01:23:38;;;;;;;;;;;8.40;99.90;;;;;;4989048;28;19995;-74
2022/10/14 01:26:09;;;;;;;;;;;8.40;99.90;;;;;;4992691;28;19923;-73
2022/10/14 01:28:53;;;;;;;;;;;8.40;99.90;;;;;;4991122;28;20012;-74
2022/10/14 01:31:24;;;;;;;;;;;8.40;99.90;;;;;;4974324;28;21346;-73
2022/10/14 01:33:52;;;;;;;;;;;8.40;99.90;;;;;;4970807;28;19923;-74
2022/10/14 01:36:30;;;;;;;;;;;8.50;99.90;;;;;;4974432;28;19916;-74
2022/10/14 01:38:59;;;;;;;;;;;8.50;99.90;;;;;;4992068;28;19916;-73
2022/10/14 01:41:27;;;;;;;;;;;8.50;99.90;;;;;;4971849;28;20669;-75
2022/10/14 01:43:54;;;;;;;;;;;8.40;99.90;;;;;;4991026;28;19916;-74
2022/10/14 01:46:21;;;;;;;;;;;8.70;99.90;;;;;;4991688;28;19916;-75
2022/10/14 01:48:50;;;;;;;;;;;8.80;99.90;;;;;;4991768;28;20598;-73
2022/10/14 01:51:21;;;;;;;;;;;8.80;99.90;;;;;;4973436;28;19916;-73
2022/10/14 01:53:56;;;;;;;;;;;8.80;99.90;;;;;;4992163;28;19928;-73
2022/10/14 01:56:22;;;;;;;;;;;8.90;99.90;;;;;;4991649;28;19931;-74
2022/10/14 01:58:49;;;;;;;;;;;9.00;99.90;;;;;;4991599;28;19927;-74
2022/10/14 02:01:14;;;;;;;;;;;9.10;99.90;;;;;;4989993;28;19966;-73
2022/10/14 02:03:44;;;;;;;;;;;9.10;99.90;;;;;;4998555;28;20003;-76
2022/10/14 02:06:26;;;;;;;;;;;9.10;99.90;;;;;;4987954;28;19967;-74
2022/10/14 02:09:06;;;;;;;;;;;9.20;99.90;;;;;;4990255;28;19916;-73
2022/10/14 02:11:55;;;;;;;;;;;9.30;99.90;;;;;;4991030;28;19916;-74
2022/10/14 02:14:27;;;;;;;;;;;9.30;99.90;;;;;;4981731;28;19917;-73
2022/10/14 02:16:55;;;;;;;;;;;9.20;99.90;;;;;;4992043;28;20549;-74
2022/10/14 02:19:24;;;;;;;;;;;9.10;99.90;;;;;;4992373;28;19922;-74
2022/10/14 02:21:55;;;;;;;;;;;9.20;99.90;;;;;;4989766;28;19916;-75
2022/10/14 02:24:23;;;;;;;;;;;9.30;99.90;;;;;;4973220;28;21267;-74
2022/10/14 02:26:50;;;;;;;;;;;9.40;99.90;;;;;;4989309;28;19916;-74
2022/10/14 02:29:16;;;;;;;;;;;9.40;99.90;;;;;;4991552;28;19920;-74
2022/10/14 02:31:43;;;;;;;;;;;9.30;99.90;;;;;;4991607;28;19931;-75
2022/10/14 02:34:10;;;;;;;;;;;9.40;99.90;;;;;;4971871;28;19958;-76
2022/10/14 02:36:36;;;;;;;;;;;9.40;99.90;;;;;;4975502;28;19917;-74
2022/10/14 02:39:02;;;;;;;;;;;9.40;99.90;;;;;;4996105;28;19920;-75
2022/10/14 02:41:32;;;;;;;;;;;9.40;99.90;;;;;;4979735;28;19939;-74
2022/10/14 02:43:58;;;;;;;;;;;9.40;99.90;;;;;;4996384;28;19959;-74
2022/10/14 02:46:23;;;;;;;;;;;9.30;99.90;;;;;;4996995;28;20330;-74
2022/10/14 02:48:49;;;;;;;;;;;9.40;99.90;;;;;;4998854;28;20014;-73
2022/10/14 02:51:15;;;;;;;;;;;9.40;99.90;;;;;;4996063;28;19926;-74
2022/10/14 02:53:40;;;;;;;;;;;9.40;99.90;;;;;;4997191;28;19924;-74
2022/10/14 02:56:06;;;;;;;;;;;9.40;99.90;;;;;;4997228;28;19920;-74
2022/10/14 02:58:31;;;;;;;;;;;9.40;99.90;;;;;;4960924;28;23453;-74
2022/10/14 03:00:57;;;;;;;;;;;9.40;99.90;;;;;;4977622;28;19923;-74
2022/10/14 03:03:22;;;;;;;;;;;9.40;99.90;;;;;;4998073;28;19974;-74
2022/10/14 03:05:48;;;;;;;;;;;9.40;99.90;;;;;;4998805;28;19915;-74
2022/10/14 03:08:14;;;;;;;;;;;9.50;99.90;;;;;;4999234;28;20667;-74
2022/10/14 03:10:39;;;;;;;;;;;9.50;99.90;;;;;;4978120;28;19920;-75
2022/10/14 03:13:05;;;;;;;;;;;9.50;99.90;;;;;;4977523;28;20407;-75
2022/10/14 03:15:30;;;;;;;;;;;9.60;99.90;;;;;;4979206;28;21246;-75
2022/10/14 03:17:56;;;;;;;;;;;9.60;99.90;;;;;;4998775;28;19927;-73
2022/10/14 03:20:21;;;;;;;;;;;9.60;99.90;;;;;;4999113;28;19916;-75
2022/10/14 03:22:47;;;;;;;;;;;9.70;99.90;;;;;;4998113;28;19920;-75
2022/10/14 03:25:12;;;;;;;;;;;9.70;99.90;;;;;;4999651;28;20661;-75
2022/10/14 03:27:38;;;;;;;;;;;9.80;99.90;;;;;;4999891;28;20226;-76
2022/10/14 03:30:04;;;;;;;;;;;9.80;99.90;;;;;;4997485;28;19924;-75
2022/10/14 03:32:29;;;;;;;;;;;9.80;99.90;;;;;;4980092;28;20220;-75
2022/10/14 03:34:55;;;;;;;;;;;9.80;99.90;;;;;;4979076;28;19955;-77
2022/10/14 03:37:20;;;;;;;;;;;9.90;99.90;;;;;;4999514;28;20377;-75
2022/10/14 03:39:46;;;;;;;;;;;9.90;99.90;;;;;;4978257;28;19916;-78
2022/10/14 03:42:11;;;;;;;;;;;10.00;99.90;;;;;;4977058;28;20531;-77
2022/10/14 03:44:37;;;;;;;;;;;10.10;99.90;;;;;;4979320;28;19958;-77
2022/10/14 03:47:03;;;;;;;;;;;10.10;99.90;;;;;;4977025;28;19997;-76
2022/10/14 03:49:28;;;;;;;;;;;10.10;99.90;;;;;;4995883;28;20014;-77
2022/10/14 03:51:54;;;;;;;;;;;10.10;99.90;;;;;;4975100;28;21285;-76
2022/10/14 03:54:19;;;;;;;;;;;10.10;99.90;;;;;;4995757;28;19927;-76
2022/10/14 03:56:45;;;;;;;;;;;10.20;99.90;;;;;;4974809;28;19916;-80
2022/10/14 03:59:10;;;;;;;;;;;10.10;99.90;;;;;;4996043;28;19931;-75
2022/10/14 04:01:36;;;;;;;;;;;10.20;99.90;;;;;;4996707;28;19915;-77
2022/10/14 04:04:01;;;;;;;;;;;10.20;99.90;;;;;;4977056;28;19959;-76
2022/10/14 04:06:27;;;;;;;;;;;10.30;99.90;;;;;;4994472;28;19938;-78
2022/10/14 04:08:52;;;;;;;;;;;10.30;99.90;;;;;;4995391;28;20664;-76
2022/10/14 04:11:18;;;;;;;;;;;10.30;99.90;;;;;;4993612;28;19973;-75
2022/10/14 04:13:44;;;;;;;;;;;10.30;99.90;;;;;;4995219;28;20621;-76
2022/10/14 04:16:09;;;;;;;;;;;10.30;99.90;;;;;;4975151;28;20643;-76
2022/10/14 04:18:35;;;;;;;;;;;10.30;99.90;;;;;;4994305;28;19921;-75
2022/10/14 04:21:02;;;;;;;;;;;10.30;99.90;;;;;;4992995;28;19916;-75
2022/10/14 04:23:28;;;;;;;;;;;10.40;99.90;;;;;;4978705;28;23755;-75
2022/10/14 04:25:53;;;;;;;;;;;10.40;99.90;;;;;;4975336;28;20011;-75
2022/10/14 04:28:19;;;;;;;;;;;10.40;99.90;;;;;;4974317;28;19916;-75
2022/10/14 04:30:44;;;;;;;;;;;10.40;99.90;;;;;;4993389;28;20017;-75
2022/10/14 04:33:10;;;;;;;;;;;10.40;99.90;;;;;;4994453;28;19978;-74
2022/10/14 04:35:35;;;;;;;;;;;10.40;99.90;;;;;;4996025;28;19915;-75
2022/10/14 04:38:01;;;;;;;;;;;10.40;99.90;;;;;;4959635;28;19927;-75
2022/10/14 04:40:26;;;;;;;;;;;10.40;99.90;;;;;;4991868;28;19993;-75
2022/10/14 04:42:55;;;;;;;;;;;10.40;99.90;;;;;;4993350;28;19916;-76
2022/10/14 04:45:21;;;;;;;;;;;10.40;99.90;;;;;;4974995;28;19916;-75
2022/10/14 04:47:47;;;;;;;;;;;10.40;99.90;;;;;;4992818;28;19931;-78
2022/10/14 04:50:12;;;;;;;;;;;10.40;99.90;;;;;;4995013;28;19922;-75
2022/10/14 04:52:38;;;;;;;;;;;10.50;99.90;;;;;;4992264;28;19924;-74
2022/10/14 04:55:03;;;;;;;;;;;10.50;99.90;;;;;;4994437;28;19916;-77
2022/10/14 04:57:29;;;;;;;;;;;10.50;99.90;;;;;;4991619;28;21212;-75
2022/10/14 04:59:55;;;;;;;;;;;10.60;99.90;;;;;;4994713;28;20550;-75
2022/10/14 05:02:20;;;;;;;;;;;10.60;99.90;;;;;;4993985;28;19916;-75
2022/10/14 05:04:46;;;;;;;;;;;10.60;99.90;;;;;;4991280;28;20538;-74
2022/10/14 05:07:11;;;;;;;;;;;10.60;99.90;;;;;;4994608;28;20007;-75
2022/10/14 05:09:37;;;;;;;;;;;10.60;99.90;;;;;;4993681;28;19923;-75
2022/10/14 05:12:03;;;;;;;;;;;10.70;99.90;;;;;;4993958;28;20740;-75
2022/10/14 05:14:28;;;;;;;;;;;10.80;99.90;;;;;;4992254;28;19916;-75
2022/10/14 05:16:54;;;;;;;;;;;10.70;99.90;;;;;;4989980;28;19973;-75
2022/10/14 05:19:19;;;;;;;;;;;10.80;99.90;;;;;;4973371;28;19915;-76
2022/10/14 05:21:45;;;;;;;;;;;10.80;99.90;;;;;;4977543;28;19916;-75
2022/10/14 05:24:11;;;;;;;;;;;10.90;99.90;;;;;;4995811;28;19958;-75
2022/10/14 05:26:36;;;;;;;;;;;10.90;99.90;;;;;;4994463;28;21417;-74
2022/10/14 05:29:02;;;;;;;;;;;10.90;99.90;;;;;;4990050;28;19927;-74
2022/10/14 05:31:27;;;;;;;;;;;10.90;99.90;;;;;;4992034;28;23738;-75
2022/10/14 05:33:53;;;;;;;;;;;10.90;99.90;;;;;;4992154;28;19963;-74
2022/10/14 05:36:18;;;;;;;;;;;11.00;99.90;;;;;;4992693;28;20246;-76
2022/10/14 05:38:44;;;;;;;;;;;11.00;99.90;;;;;;4993504;28;20199;-75
2022/10/14 05:41:10;;;;;;;;;;;11.10;99.90;;;;;;4994488;28;19973;-75
2022/10/14 05:43:35;;;;;;;;;;;11.10;99.90;;;;;;4993857;28;20759;-74
2022/10/14 05:46:01;;;;;;;;;;;11.00;99.90;;;;;;4990662;28;20383;-75
2022/10/14 05:48:26;;;;;;;;;;;11.00;99.90;;;;;;4989129;28;19927;-75
2022/10/14 05:50:52;;;;;;;;;;;11.10;99.90;;;;;;4994036;28;21403;-74
2022/10/14 05:53:17;;;;;;;;;;;11.10;99.90;;;;;;4972210;28;20051;-74
2022/10/14 05:55:43;;;;;;;;;;;11.10;99.90;;;;;;4991034;28;19932;-77
2022/10/14 05:58:08;;;;;;;;;;;11.10;99.90;;;;;;4972111;28;19916;-75
2022/10/14 06:00:34;;;;;;;;;;;11.20;99.90;;;;;;4986541;28;20310;-77
2022/10/14 06:03:00;;;;;;;;;;;11.20;99.90;;;;;;4996465;28;20345;-78
2022/10/14 06:05:25;;;;;;;;;;;11.30;99.90;;;;;;4975859;28;19968;-78
2022/10/14 06:07:51;;;;;;;;;;;11.20;99.90;;;;;;4992167;28;19924;-77
2022/10/14 06:10:17;;;;;;;;;;;11.20;99.90;;;;;;4992678;28;20651;-77
2022/10/14 06:12:42;;;;;;;;;;;11.20;99.90;;;;;;4990779;28;24448;-76
2022/10/14 06:15:08;;;;;;;;;;;11.30;99.90;;;;;;4993543;28;20041;-77
2022/10/14 06:17:33;;;;;;;;;;;11.30;99.90;;;;;;4970480;28;23341;-78
2022/10/14 06:19:59;;;;;;;;;;;11.40;99.90;;;;;;4993481;28;19916;-77
2022/10/14 06:22:24;;;;;;;;;;;11.30;99.90;;;;;;4992871;28;19916;-77
2022/10/14 06:24:50;;;;;;;;;;;11.40;99.90;;;;;;4972798;28;19974;-77
2022/10/14 06:27:16;;;;;;;;;;;11.40;99.90;;;;;;4994114;28;19947;-77
2022/10/14 06:29:41;;;;;;;;;;;11.40;99.90;;;;;;4977719;28;20769;-77
2022/10/14 06:32:07;;;;;;;;;;;11.40;99.90;;;;;;4993972;28;19964;-77
2022/10/14 06:34:33;;;;;;;;;;;11.40;99.90;;;;;;4993060;28;19976;-76
2022/10/14 06:36:59;;;;;;;;;;;11.40;99.90;;;;;;4985826;28;20104;-76
2022/10/14 06:39:25;;;;;;;;;;;11.40;99.90;;;;;;4990214;28;24150;-76
2022/10/14 06:41:50;;;;;;;;;;;11.40;99.90;;;;;;4990589;28;19951;-76
2022/10/14 06:44:16;;;;;;;;;;;11.40;99.90;;;;;;4992129;28;19927;-77
2022/10/14 06:46:42;;;;;;;;;;;11.40;99.90;;;;;;4969884;28;19923;-75
2022/10/14 06:49:07;;;;;;;;;;;11.40;99.90;;;;;;4990494;28;19920;-76
2022/10/14 06:51:33;;;;;;;;;;;11.50;99.90;;;;;;4991744;28;20011;-79
2022/10/14 06:53:59;;;;;;;;;;;11.50;99.90;;;;;;4972531;28;20915;-76
2022/10/14 06:56:24;;;;;;;;;;;11.50;99.90;;;;;;4971412;28;19920;-77
2022/10/14 06:58:53;;;;;;;;;;;11.50;99.90;;;;;;4973968;28;19916;-76
2022/10/14 07:01:19;;;;;;;;;;;11.50;99.90;;;;;;4972655;28;19924;-76
2022/10/14 07:03:45;;;;;;;;;;;11.60;99.90;;;;;;4992066;28;19952;-76
2022/10/14 07:06:10;;;;;;;;;;;11.50;99.90;;;;;;4991371;28;19916;-76
2022/10/14 07:08:36;;;;;;;;;;;11.60;99.90;;;;;;4986879;28;19927;-77
2022/10/14 07:11:02;;;;;;;;;;;11.70;99.90;;;;;;4990795;28;19915;-75
2022/10/14 07:13:39;;;;;;;;;;;11.60;99.90;;;;;;4988276;28;19923;-76
2022/10/14 07:16:05;;;;;;;;;;;11.70;99.90;;;;;;4991299;28;19923;-76
2022/10/14 07:18:30;;;;;;;;;;;11.80;99.90;;;;;;4991744;28;19915;-76
2022/10/14 07:21:00;;;;;;;;;;;11.80;99.90;;;;;;4992003;28;19920;-76
2022/10/14 07:23:25;;;;;;;;;;;11.80;99.90;;;;;;4993917;28;19916;-77
2022/10/14 07:25:54;;;;;;;;;;;11.90;99.90;;;;;;4974704;28;19927;-78
2022/10/14 07:28:19;;;;;;;;;;;11.90;99.90;;;;;;4995458;28;19998;-77
2022/10/14 07:30:45;;;;;;;;;;;12.00;99.90;;;;;;4992704;28;19923;-76
2022/10/14 07:33:10;;;;;;;;;;;12.00;99.90;;;;;;4994091;28;19928;-76
2022/10/14 07:35:38;;;;;;;;;;;12.00;99.90;;;;;;4994432;28;20287;-76
2022/10/14 07:38:04;;;;;;;;;;;12.10;99.90;;;;;;4996273;28;20298;-76
2022/10/14 07:40:30;;;;;;;;;;;12.10;99.90;;;;;;4998443;28;20645;-75
2022/10/14 07:42:56;;;;;;;;;;;12.10;99.90;;;;;;4977691;28;19916;-77
2022/10/14 07:45:22;;;;;;;;;;;12.20;99.90;;;;;;4995606;28;20494;-75
2022/10/14 07:47:48;;;;;;;;;;;12.30;99.90;;;;;;4975803;28;19925;-76
2022/10/14 07:50:13;;;;;;;;;;;12.20;99.90;;;;;;4995029;28;19916;-75
2022/10/14 07:52:39;;;;;;;;;;;12.40;99.90;;;;;;4960686;28;19935;-75
2022/10/14 07:55:05;;;;;;;;;;;12.30;99.90;;;;;;4977284;28;23047;-75
2022/10/14 07:57:31;;;;;;;;;;;12.40;99.90;;;;;;4977356;28;20059;-77
2022/10/14 07:59:57;;;;;;;;;;;12.40;99.90;;;;;;4994784;28;19977;-76
2022/10/14 08:02:23;;;;;;;;;;;12.50;99.90;;;;;;4978074;28;19938;-75
2022/10/14 08:04:53;;;;;;;;;;;12.60;99.90;;;;;;4996100;28;19916;-75
2022/10/14 08:07:19;;;;;;;;;;;12.60;99.90;;;;;;4996035;28;19915;-75
2022/10/14 08:09:44;;;;;;;;;;;12.60;99.90;;;;;;4996162;28;21335;-74
2022/10/14 08:12:10;;;;;;;;;;;12.60;99.90;;;;;;4993441;28;19934;-77
2022/10/14 08:14:36;;;;;;;;;;;12.70;99.90;;;;;;4974713;28;20935;-75
2022/10/14 08:17:01;;;;;;;;;;;12.70;99.90;;;;;;4974849;28;19916;-74
2022/10/14 08:19:27;;;;;;;;;;;12.80;99.90;;;;;;4975558;28;19923;-75
2022/10/14 08:21:52;;;;;;;;;;;12.90;99.90;;;;;;4972227;28;19924;-75
2022/10/14 08:24:18;;;;;;;;;;;12.90;99.90;;;;;;4996110;28;19951;-75
2022/10/14 08:26:54;;;;;;;;;;;12.90;99.90;;;;;;4976386;28;19924;-74
2022/10/14 08:29:21;;;;;;;;;;;13.00;99.90;;;;;;4995229;28;19970;-75
2022/10/14 08:31:47;;;;;;;;;;;13.00;99.90;;;;;;4994664;28;19931;-75
2022/10/14 08:34:12;;;;;;;;;;;13.10;99.90;;;;;;4996124;28;19920;-76
2022/10/14 08:36:38;;;;;;;;;;;13.20;99.90;;;;;;4995399;28;19976;-74
2022/10/14 08:39:04;;;;;;;;;;;13.30;99.90;;;;;;4976025;28;20725;-75
2022/10/14 08:41:48;;;;;;;;;;;13.30;99.90;;;;;;4993349;28;19959;-74
2022/10/14 08:44:17;;;;;;;;;;;13.40;99.90;;;;;;4973435;28;19920;-74
2022/10/14 08:46:49;;;;;;;;;;;13.40;99.90;;;;;;4993536;28;19917;-75
2022/10/14 08:49:18;;;;;;;;;;;13.50;99.90;;;;;;4993486;28;19923;-75
2022/10/14 08:51:46;;;;;;;;;;;13.50;99.90;;;;;;4977543;28;20054;-74
2022/10/14 08:54:17;;;;;;;;;;;13.50;99.90;;;;;;4976669;28;19920;-75
2022/10/14 08:56:42;;;;;;;;;;;13.50;99.90;;;;;;4971753;28;19927;-74
2022/10/14 08:59:18;;;;;;;;;;;13.70;99.90;;;;;;4988984;28;20014;-74
2022/10/14 09:01:49;;;;;;;;;;;13.70;99.90;;;;;;4988019;28;24171;-74
2022/10/14 09:04:15;;;;;;;;;;;13.70;99.90;;;;;;4974098;28;20678;-74
2022/10/14 09:06:43;;;;;;;;;;;13.60;99.90;;;;;;4970511;28;20294;-75
2022/10/14 09:09:14;;;;;;;;;;;13.70;99.90;;;;;;4969532;28;19916;-74
2022/10/14 09:11:41;;;;;;;;;;;13.70;99.90;;;;;;4989834;28;19922;-74
2022/10/14 09:14:07;;;;;;;;;;;13.70;99.90;;;;;;4969199;28;20768;-73
2022/10/14 09:16:34;;;;;;;;;;;13.80;99.90;;;;;;4986517;28;19973;-76
2022/10/14 09:19:01;;;;;;;;;;;13.80;99.90;;;;;;4987689;28;20014;-75
2022/10/14 09:21:34;;;;;;;;;;;13.80;99.90;;;;;;4968198;28;20208;-74
2022/10/14 09:24:03;;;;;;;;;;;13.80;99.90;;;;;;4989490;28;19920;-75
2022/10/14 09:26:36;;;;;;;;;;;13.90;99.90;;;;;;4988687;28;19960;-74
2022/10/14 09:29:02;;;;;;;;;;;13.90;99.90;;;;;;4986226;28;19916;-76
2022/10/14 09:31:27;;;;;;;;;;;13.90;99.90;;;;;;4965847;28;19958;-73
2022/10/14 09:33:54;;;;;;;;;;;14.00;99.90;;;;;;4969426;28;21088;-74
2022/10/14 09:36:20;;;;;;;;;;;14.00;99.90;;;;;;4968127;28;19963;-75
2022/10/14 09:38:47;;;;;;;;;;;14.10;99.90;;;;;;4967463;28;19935;-74
2022/10/14 09:41:14;;;;;;;;;;;14.10;99.90;;;;;;4966394;28;21412;-74
2022/10/14 09:43:59;;;;;;;;;;;14.20;99.90;;;;;;4969140;28;21484;-77
2022/10/14 09:46:25;;;;;;;;;;;14.30;99.90;;;;;;4967080;28;19939;-77
2022/10/14 09:48:51;;;;;;;;;;;14.30;99.90;;;;;;4968237;28;19955;-76
2022/10/14 09:51:18;;;;;;;;;;;14.30;99.90;;;;;;4969481;28;19916;-76
2022/10/14 09:53:45;;;;;;;;;;;14.40;99.90;;;;;;4968735;28;19975;-76
2022/10/14 09:56:11;;;;;;;;;;;14.40;99.90;;;;;;4968885;28;20066;-76
2022/10/14 09:58:49;;;;;;;;;;;14.30;99.90;;;;;;4969859;28;19916;-77
2022/10/14 10:01:19;;;;;;;;;;;14.50;99.90;;;;;;4963918;28;19923;-76
2022/10/14 10:03:46;;;;;;;;;;;14.40;99.90;;;;;;4960652;28;19938;-76
2022/10/14 10:06:13;;;;;;;;;;;14.40;99.90;;;;;;4966584;28;20638;-79
2022/10/14 10:08:41;;;;;;;;;;;14.40;99.90;;;;;;5023341;28;19912;-78
2022/10/14 10:11:09;;;;;;;;;;;14.40;99.90;;;;;;5093900;28;20231;-77
2022/10/14 10:13:40;;;;;;;;;;;14.50;99.90;;;;;;5073665;28;19920;-75
2022/10/14 10:16:07;;;;;;;;;;;14.50;99.90;;;;;;5080554;28;19912;-77
2022/10/14 10:18:32;;;;;;;;;;;14.50;99.90;;;;;;5077130;28;19917;-77
2022/10/14 10:21:06;;;;;;;;;;;14.50;99.90;;;;;;5071323;28;19957;-77
2022/10/14 10:23:33;;;;;;;;;;;14.50;99.90;;;;;;5072132;28;20073;-78
2022/10/14 10:26:15;;;;;;;;;;;14.50;99.90;;;;;;5070080;28;19970;-77
2022/10/14 10:28:45;;;;;;;;;;;14.50;99.90;;;;;;5074887;28;19969;-77
2022/10/14 10:31:11;;;;;;;;;;;14.50;99.90;;;;;;5069599;28;19928;-77
2022/10/14 10:33:41;;;;;;;;;;;14.60;99.90;;;;;;5093362;28;20366;-76
2022/10/14 10:36:07;;;;;;;;;;;14.60;99.90;;;;;;5093502;28;19919;-77
2022/10/14 10:38:55;;;;;;;;;;;14.60;99.90;;;;;;5058799;28;23849;-76
2022/10/14 10:41:30;;;;;;;;;;;14.60;99.90;;;;;;4976123;28;19916;-76
2022/10/14 10:44:01;;;;;;;;;;;14.70;99.90;;;;;;4991093;28;19949;-75
2022/10/14 10:46:36;;;;;;;;;;;14.70;99.90;;;;;;4989994;28;20350;-76
2022/10/14 10:49:13;;;;;;;;;;;14.70;99.90;;;;;;4992828;28;19947;-76
2022/10/14 10:51:42;;;;;;;;;;;14.80;99.90;;;;;;4970998;28;19916;-75
2022/10/14 10:54:31;;;;;;;;;;;14.70;99.90;;;;;;4990073;28;21447;-76
2022/10/14 10:57:00;;;;;;;;;;;14.80;99.90;;;;;;4960812;28;20226;-74
2022/10/14 10:59:35;;;;;;;;;;;14.80;99.90;;;;;;4996471;28;23313;-74
2022/10/14 11:02:02;;;;;;;;;;;14.80;99.90;;;;;;4993268;28;19916;-75
2022/10/14 11:04:31;;;;;;;;;;;14.80;99.90;;;;;;4995885;28;19916;-75
2022/10/14 11:13:20;;;;;;;;;;;14.90;99.90;;;;;;4998432;28;20337;-75
2022/10/14 11:15:57;;;;;;;;;;;14.90;99.90;;;;;;4998505;28;19931;-75
2022/10/14 11:18:47;;;;;;;;;;;14.80;99.90;;;;;;4919333;28;19920;-74
2022/10/14 11:21:31;;;;;;;;;;;14.90;99.90;;;;;;4987871;28;19951;-75
2022/10/14 11:24:08;;;;;;;;;;;14.90;99.90;;;;;;4992256;28;19931;-74
2022/10/14 11:26:49;;;;;;;;;;;14.90;99.90;;;;;;4991767;28;19923;-74
2022/10/14 11:29:18;;;;;;;;;;;14.90;99.90;;;;;;4992449;28;19967;-74
2022/10/14 11:31:51;;;;;;;;;;;15.00;99.90;;;;;;4971973;28;19936;-76
2022/10/14 11:34:30;;;;;;;;;;;15.00;99.90;;;;;;4968216;28;19930;-75
2022/10/14 11:37:01;;;;;;;;;;;15.00;99.90;;;;;;4971389;28;19916;-75
2022/10/14 11:39:33;;;;;;;;;;;15.00;99.90;;;;;;4966623;28;20272;-74
2022/10/14 11:42:00;;;;;;;;;;;15.00;99.90;;;;;;4966127;28;19923;-74
2022/10/14 11:44:29;;;;;;;;;;;15.00;99.90;;;;;;4966379;28;20061;-75
2022/10/14 11:46:57;;;;;;;;;;;15.00;99.90;;;;;;4968211;28;20396;-75
2022/10/14 11:49:27;;;;;;;;;;;15.00;99.90;;;;;;4968822;28;19916;-74
2022/10/14 11:51:59;;;;;;;;;;;15.00;99.90;;;;;;4966836;28;20466;-74
2022/10/14 11:54:29;;;;;;;;;;;14.90;99.90;;;;;;4967347;28;20272;-75
2022/10/14 11:56:55;;;;;;;;;;;15.00;99.90;;;;;;4967452;28;21253;-76
2022/10/14 11:59:30;;;;;;;;;;;14.90;99.90;;;;;;4967287;28;19948;-76
2022/10/14 12:02:02;;;;;;;;;;;14.90;99.90;;;;;;4966121;28;20501;-75
2022/10/14 12:04:34;;;;;;;;;;;14.90;99.90;;;;;;4946971;28;19935;-75
2022/10/14 12:07:04;;;;;;;;;;;14.90;99.90;;;;;;4964625;28;20681;-75
2022/10/14 12:09:37;;;;;;;;;;;14.90;99.90;;;;;;4964032;28;20412;-75
2022/10/14 12:12:13;;;;;;;;;;;14.90;99.90;;;;;;4967168;28;19968;-75
2022/10/14 12:14:42;;;;;;;;;;;15.00;99.90;;;;;;4966464;28;19916;-75
2022/10/14 12:17:31;;;;;;;;;;;15.00;99.90;;;;;;4965599;28;19917;-75
2022/10/14 12:20:00;;;;;;;;;;;15.10;99.90;;;;;;4957415;28;20017;-75
2022/10/14 12:22:28;;;;;;;;;;;15.10;99.90;;;;;;4968403;28;21288;-75
2022/10/14 12:24:56;;;;;;;;;;;15.10;99.90;;;;;;4963394;28;19969;-75
2022/10/14 12:27:23;;;;;;;;;;;15.10;99.90;;;;;;4964149;28;20594;-74
2022/10/14 12:29:49;;;;;;;;;;;15.10;99.90;;;;;;4965060;28;19965;-74
2022/10/14 12:32:14;;;;;;;;;;;15.20;99.90;;;;;;4962381;28;19932;-77
2022/10/14 12:34:41;;;;;;;;;;;15.20;99.90;;;;;;4964903;28;20821;-75
2022/10/14 12:37:25;;;;;;;;;;;15.20;99.90;;;;;;4966923;28;19916;-74
2022/10/14 12:39:51;;;;;;;;;;;15.10;99.90;;;;;;4964006;28;19916;-74
2022/10/14 12:42:17;;;;;;;;;;;15.10;99.90;;;;;;4963908;28;19917;-73
2022/10/14 12:44:47;;;;;;;;;;;15.10;99.90;;;;;;4964689;28;20546;-75
2022/10/14 12:47:19;;;;;;;;;;;15.30;99.90;;;;;;4964545;28;19960;-74
2022/10/14 12:49:50;;;;;;;;;;;15.40;99.90;;;;;;4972763;28;19916;-76
2022/10/14 12:52:27;;;;;;;;;;;15.50;99.90;;;;;;4975886;28;21072;-75
2022/10/14 12:54:52;;;;;;;;;;;15.60;99.90;;;;;;4969556;28;21711;-74
2022/10/14 12:57:29;;;;;;;;;;;15.60;99.90;;;;;;4970802;28;20069;-75
2022/10/14 12:59:57;;;;;;;;;;;15.70;99.90;;;;;;5082714;28;20311;-77
2022/10/14 13:02:31;;;;;;;;;;;15.70;99.90;;;;;;5075556;28;20305;-74
2022/10/14 13:04:58;;;;;;;;;;;15.70;99.90;;;;;;5037416;28;19931;-75
2022/10/14 13:07:28;;;;;;;;;;;15.70;99.90;;;;;;4965316;28;19982;-74
2022/10/14 13:10:13;;;;;;;;;;;15.70;99.90;;;;;;4964895;28;19925;-75
2022/10/14 13:12:39;;;;;;;;;;;15.70;99.90;;;;;;4961438;28;19924;-75
2022/10/14 13:15:24;;;;;;;;;;;15.70;99.90;;;;;;4965312;28;20331;-75
2022/10/14 13:17:49;;;;;;;;;;;15.80;99.90;;;;;;4966052;28;19916;-76
2022/10/14 13:20:33;;;;;;;;;;;15.90;99.90;;;;;;4963632;28;20326;-76
2022/10/14 13:23:20;;;;;;;;;;;15.90;99.90;;;;;;4963597;28;19916;-76
2022/10/14 13:25:47;;;;;;;;;;;15.90;99.90;;;;;;4965281;28;19920;-76
2022/10/14 13:28:23;;;;;;;;;;;15.90;99.90;;;;;;4964373;28;19923;-75
2022/10/14 13:31:11;;;;;;;;;;;15.90;99.90;;;;;;4964880;28;19922;-76
2022/10/14 13:33:43;;;;;;;;;;;15.80;99.90;;;;;;4963043;28;20654;-76
2022/10/14 13:36:15;;;;;;;;;;;15.80;99.90;;;;;;4964040;28;19920;-76
2022/10/14 13:38:43;;;;;;;;;;;15.70;99.90;;;;;;4964893;28;20243;-75
2022/10/14 13:41:13;;;;;;;;;;;15.70;99.90;;;;;;4964562;28;21296;-74
2022/10/14 13:43:41;;;;;;;;;;;15.80;99.90;;;;;;4965482;28;19916;-80
2022/10/14 13:46:33;;;;;;;;;;;15.70;99.90;;;;;;4964163;28;20658;-78
2022/10/14 13:48:59;;;;;;;;;;;15.70;99.90;;;;;;4963526;28;19916;-76
2022/10/14 13:51:25;;;;;;;;;;;15.70;99.90;;;;;;4964185;28;19923;-78
2022/10/14 13:53:54;;;;;;;;;;;15.70;99.90;;;;;;4964352;28;21200;-76
2022/10/14 13:56:37;;;;;;;;;;;15.60;99.90;;;;;;4965751;28;21809;-78
2022/10/14 13:59:16;;;;;;;;;;;15.60;99.90;;;;;;4966131;28;23704;-77
2022/10/14 14:01:42;;;;;;;;;;;15.50;99.90;;;;;;4961636;28;19924;-75
2022/10/14 14:04:10;;;;;;;;;;;15.50;99.90;;;;;;4965349;28;20085;-78
2022/10/14 14:06:41;;;;;;;;;;;15.50;99.90;;;;;;4966542;28;19983;-80
2022/10/14 14:09:08;;;;;;;;;;;15.50;99.90;;;;;;4963758;28;19916;-76
2022/10/14 14:11:35;;;;;;;;;;;15.50;99.90;;;;;;4964312;28;20523;-77
2022/10/14 14:14:06;;;;;;;;;;;15.40;99.90;;;;;;4962303;28;19974;-77
2022/10/14 14:16:34;;;;;;;;;;;15.30;99.90;;;;;;4963173;28;20019;-76
2022/10/14 14:18:59;;;;;;;;;;;15.30;99.90;;;;;;4963541;28;20204;-77
2022/10/14 14:21:26;;;;;;;;;;;15.20;99.90;;;;;;4963479;28;19916;-76
2022/10/14 14:23:53;;;;;;;;;;;15.30;99.90;;;;;;4963854;28;20656;-77
2022/10/14 14:26:19;;;;;;;;;;;15.30;99.90;;;;;;4963751;28;19939;-76
2022/10/14 14:28:46;;;;;;;;;;;15.30;99.90;;;;;;4964075;28;19923;-76
2022/10/14 14:31:17;;;;;;;;;;;15.40;99.90;;;;;;4963222;28;20466;-75
2022/10/14 14:33:43;;;;;;;;;;;15.40;99.90;;;;;;4982544;28;19923;-78
2022/10/14 14:36:12;;;;;;;;;;;15.40;99.90;;;;;;4979544;28;20314;-76
2022/10/14 14:38:45;;;;;;;;;;;15.50;99.90;;;;;;4982344;28;19916;-76